sensor_id;sensor_type;location;lat;lon;timestamp;temperature;humidity
14723;DHT22;7452;55.594;12.986;2023-05-02T00:01:53;11.00;99.90
14723;DHT22;7452;55.594;12.986;2023-05-02T00:04:20;11.10;99.90
14723;DHT22;7452;55.594;12.986;2023-05-02T00:06:47;11.00;99.90
14723;DHT22;7452;55.594;12.986;2023-05-02T00:09:14;11.00;99.90
14723;DHT22;7452;55.594;12.986;2023-05-02T00:11:41;11.00;99.90
14723;DHT22;7452;55.594;12.986;2023-05-02T00:14:08;10.90;99.90
14723;DHT22;7452;55.594;12.986;2023-05-02T00:16:35;10.90;99.90
14723;DHT22;7452;55.594;12.986;2023-05-02T00:19:03;10.80;99.90
14723;DHT22;7452;55.594;12.986;2023-05-02T00:21:30;10.70;99.90
14723;DHT22;7452;55.594;12.986;2023-05-02T00:23:57;10.70;99.90
14723;DHT22;7452;55.594;12.986;2023-05-02T00:26:24;10.70;99.90
14723;DHT22;7452;55.594;12.986;2023-05-02T00:28:52;10.70;99.90
14723;DHT22;7452;55.594;12.986;2023-05-02T00:31:18;10.70;99.90
14723;DHT22;7452;55.594;12.986;2023-05-02T00:33:45;10.60;99.90
14723;DHT22;7452;55.594;12.986;2023-05-02T00:36:14;10.60;99.90
14723;DHT22;7452;55.594;12.986;2023-05-02T00:38:41;10.60;99.90
14723;DHT22;7452;55.594;12.986;2023-05-02T00:41:08;10.60;99.90
14723;DHT22;7452;55.594;12.986;2023-05-02T00:43:35;10.60;99.90
14723;DHT22;7452;55.594;12.986;2023-05-02T00:46:04;10.60;99.90
14723;DHT22;7452;55.594;12.986;2023-05-02T00:48:32;10.60;99.90
14723;DHT22;7452;55.594;12.986;2023-05-02T00:51:01;10.60;99.90
14723;DHT22;7452;55.594;12.986;2023-05-02T00:53:30;10.60;99.90
14723;DHT22;7452;55.594;12.986;2023-05-02T00:55:58;10.60;99.90
14723;DHT22;7452;55.594;12.986;2023-05-02T00:58:25;10.60;99.90
14723;DHT22;7452;55.594;12.986;2023-05-02T01:01:10;10.60;99.90
14723;DHT22;7452;55.594;12.986;2023-05-02T01:03:45;10.70;99.90
14723;DHT22;7452;55.594;12.986;2023-05-02T01:06:27;10.70;99.90
14723;DHT22;7452;55.594;12.986;2023-05-02T01:09:01;10.60;99.90
14723;DHT22;7452;55.594;12.986;2023-05-02T01:11:42;10.70;99.90
14723;DHT22;7452;55.594;12.986;2023-05-02T01:14:10;10.80;99.90
14723;DHT22;7452;55.594;12.986;2023-05-02T01:16:38;10.70;99.90
14723;DHT22;7452;55.594;12.986;2023-05-02T01:19:08;10.70;99.90
14723;DHT22;7452;55.594;12.986;2023-05-02T01:21:38;10.70;99.90
14723;DHT22;7452;55.594;12.986;2023-05-02T01:24:12;10.60;99.90
14723;DHT22;7452;55.594;12.986;2023-05-02T01:26:51;10.60;99.90
14723;DHT22;7452;55.594;12.986;2023-05-02T01:29:26;10.60;99.90
14723;DHT22;7452;55.594;12.986;2023-05-02T01:31:56;10.60;99.90
14723;DHT22;7452;55.594;12.986;2023-05-02T01:34:24;10.50;99.90
14723;DHT22;7452;55.594;12.986;2023-05-02T01:36:54;10.50;99.90
14723;DHT22;7452;55.594;12.986;2023-05-02T01:39:24;10.50;99.90
14723;DHT22;7452;55.594;12.986;2023-05-02T01:41:53;10.50;99.90
14723;DHT22;7452;55.594;12.986;2023-05-02T01:44:22;10.50;99.90
14723;DHT22;7452;55.594;12.986;2023-05-02T01:46:52;10.60;99.90
14723;DHT22;7452;55.594;12.986;2023-05-02T01:49:22;10.60;99.90
14723;DHT22;7452;55.594;12.986;2023-05-02T01:51:50;10.60;99.90
14723;DHT22;7452;55.594;12.986;2023-05-02T01:54:20;10.60;99.90
14723;DHT22;7452;55.594;12.986;2023-05-02T01:56:48;10.60;99.90
14723;DHT22;7452;55.594;12.986;2023-05-02T01:59:18;10.70;99.90
14723;DHT22;7452;55.594;12.986;2023-05-02T02:01:45;10.60;99.90
14723;DHT22;7452;55.594;12.986;2023-05-02T02:04:15;10.70;99.90
14723;DHT22;7452;55.594;12.986;2023-05-02T02:06:47;10.70;99.90
14723;DHT22;7452;55.594;12.986;2023-05-02T02:09:16;10.70;99.90
14723;DHT22;7452;55.594;12.986;2023-05-02T02:11:48;10.80;99.90
14723;DHT22;7452;55.594;12.986;2023-05-02T02:14:20;10.80;99.90
14723;DHT22;7452;55.594;12.986;2023-05-02T02:16:49;10.80;99.90
14723;DHT22;7452;55.594;12.986;2023-05-02T02:19:21;10.70;99.90
14723;DHT22;7452;55.594;12.986;2023-05-02T02:21:49;10.70;99.90
14723;DHT22;7452;55.594;12.986;2023-05-02T02:24:17;10.60;99.90
14723;DHT22;7452;55.594;12.986;2023-05-02T02:26:47;10.50;99.90
14723;DHT22;7452;55.594;12.986;2023-05-02T02:29:13;10.50;99.90
14723;DHT22;7452;55.594;12.986;2023-05-02T02:31:40;10.40;99.90
14723;DHT22;7452;55.594;12.986;2023-05-02T02:34:07;10.30;99.90
14723;DHT22;7452;55.594;12.986;2023-05-02T02:36:45;10.20;99.90
14723;DHT22;7452;55.594;12.986;2023-05-02T02:39:22;10.20;99.90
14723;DHT22;7452;55.594;12.986;2023-05-02T02:42:02;10.10;99.90
14723;DHT22;7452;55.594;12.986;2023-05-02T02:44:41;10.10;99.90
14723;DHT22;7452;55.594;12.986;2023-05-02T02:47:14;10.00;99.90
14723;DHT22;7452;55.594;12.986;2023-05-02T02:49:48;10.00;99.90
14723;DHT22;7452;55.594;12.986;2023-05-02T02:52:22;10.00;99.90
14723;DHT22;7452;55.594;12.986;2023-05-02T02:54:58;10.00;99.90
14723;DHT22;7452;55.594;12.986;2023-05-02T02:57:30;10.00;99.90
14723;DHT22;7452;55.594;12.986;2023-05-02T03:00:01;9.80;99.90
14723;DHT22;7452;55.594;12.986;2023-05-02T03:02:34;9.90;99.90
14723;DHT22;7452;55.594;12.986;2023-05-02T03:05:02;9.80;99.90
14723;DHT22;7452;55.594;12.986;2023-05-02T03:07:31;9.70;99.90
14723;DHT22;7452;55.594;12.986;2023-05-02T03:10:02;9.70;99.90
14723;DHT22;7452;55.594;12.986;2023-05-02T03:12:29;9.60;99.90
14723;DHT22;7452;55.594;12.986;2023-05-02T03:15:04;9.60;99.90
14723;DHT22;7452;55.594;12.986;2023-05-02T03:17:35;9.40;99.90
14723;DHT22;7452;55.594;12.986;2023-05-02T03:20:03;9.30;99.90
14723;DHT22;7452;55.594;12.986;2023-05-02T03:22:31;9.10;99.90
14723;DHT22;7452;55.594;12.986;2023-05-02T03:24:58;9.10;99.90
14723;DHT22;7452;55.594;12.986;2023-05-02T03:27:25;9.10;99.90
14723;DHT22;7452;55.594;12.986;2023-05-02T03:29:52;8.80;99.90
14723;DHT22;7452;55.594;12.986;2023-05-02T03:32:19;8.70;99.90
14723;DHT22;7452;55.594;12.986;2023-05-02T03:34:46;8.70;99.90
14723;DHT22;7452;55.594;12.986;2023-05-02T03:37:12;8.60;99.90
14723;DHT22;7452;55.594;12.986;2023-05-02T03:39:41;8.60;99.90
14723;DHT22;7452;55.594;12.986;2023-05-02T03:42:07;8.60;99.90
14723;DHT22;7452;55.594;12.986;2023-05-02T03:44:34;8.60;99.90
14723;DHT22;7452;55.594;12.986;2023-05-02T03:47:01;8.70;99.90
14723;DHT22;7452;55.594;12.986;2023-05-02T03:49:28;8.70;99.90
14723;DHT22;7452;55.594;12.986;2023-05-02T03:51:55;8.70;99.90
14723;DHT22;7452;55.594;12.986;2023-05-02T03:54:23;8.70;99.90
14723;DHT22;7452;55.594;12.986;2023-05-02T03:56:52;8.80;99.90
14723;DHT22;7452;55.594;12.986;2023-05-02T03:59:19;8.80;99.90
14723;DHT22;7452;55.594;12.986;2023-05-02T04:01:48;8.80;99.90
14723;DHT22;7452;55.594;12.986;2023-05-02T04:04:15;8.80;99.90
14723;DHT22;7452;55.594;12.986;2023-05-02T04:06:42;8.90;99.90
14723;DHT22;7452;55.594;12.986;2023-05-02T04:09:09;8.90;99.90
14723;DHT22;7452;55.594;12.986;2023-05-02T04:11:36;8.90;99.90
14723;DHT22;7452;55.594;12.986;2023-05-02T04:14:04;8.90;99.90
14723;DHT22;7452;55.594;12.986;2023-05-02T04:16:31;8.90;99.90
14723;DHT22;7452;55.594;12.986;2023-05-02T04:18:58;8.80;99.90
14723;DHT22;7452;55.594;12.986;2023-05-02T04:21:25;8.70;99.90
14723;DHT22;7452;55.594;12.986;2023-05-02T04:23:52;8.70;99.90
14723;DHT22;7452;55.594;12.986;2023-05-02T04:26:19;8.70;99.90
14723;DHT22;7452;55.594;12.986;2023-05-02T04:28:46;8.80;99.90
14723;DHT22;7452;55.594;12.986;2023-05-02T04:31:14;8.80;99.90
14723;DHT22;7452;55.594;12.986;2023-05-02T04:33:41;8.90;99.90
14723;DHT22;7452;55.594;12.986;2023-05-02T04:36:09;8.90;99.90
14723;DHT22;7452;55.594;12.986;2023-05-02T04:38:36;8.90;99.90
14723;DHT22;7452;55.594;12.986;2023-05-02T04:41:03;8.80;99.90
14723;DHT22;7452;55.594;12.986;2023-05-02T04:43:30;8.70;99.90
14723;DHT22;7452;55.594;12.986;2023-05-02T04:45:57;8.80;99.90
14723;DHT22;7452;55.594;12.986;2023-05-02T04:48:25;8.70;99.90
14723;DHT22;7452;55.594;12.986;2023-05-02T04:50:52;8.80;99.90
14723;DHT22;7452;55.594;12.986;2023-05-02T04:53:20;8.80;99.90
14723;DHT22;7452;55.594;12.986;2023-05-02T04:55:47;8.90;99.90
14723;DHT22;7452;55.594;12.986;2023-05-02T04:58:14;8.90;99.90
14723;DHT22;7452;55.594;12.986;2023-05-02T05:00:42;8.90;99.90
14723;DHT22;7452;55.594;12.986;2023-05-02T05:03:09;9.00;99.90
14723;DHT22;7452;55.594;12.986;2023-05-02T05:05:37;9.00;99.90
14723;DHT22;7452;55.594;12.986;2023-05-02T05:08:04;9.10;99.90
14723;DHT22;7452;55.594;12.986;2023-05-02T05:10:31;9.10;99.90
14723;DHT22;7452;55.594;12.986;2023-05-02T05:12:57;9.10;99.90
14723;DHT22;7452;55.594;12.986;2023-05-02T05:15:24;9.20;99.90
14723;DHT22;7452;55.594;12.986;2023-05-02T05:17:51;9.20;99.90
14723;DHT22;7452;55.594;12.986;2023-05-02T05:20:18;9.20;99.90
14723;DHT22;7452;55.594;12.986;2023-05-02T05:22:46;9.30;99.90
14723;DHT22;7452;55.594;12.986;2023-05-02T05:25:13;9.20;99.90
14723;DHT22;7452;55.594;12.986;2023-05-02T05:27:40;9.20;99.90
14723;DHT22;7452;55.594;12.986;2023-05-02T05:30:08;9.30;99.90
14723;DHT22;7452;55.594;12.986;2023-05-02T05:32:34;9.30;99.90
14723;DHT22;7452;55.594;12.986;2023-05-02T05:35:01;9.40;99.90
14723;DHT22;7452;55.594;12.986;2023-05-02T05:37:29;9.40;99.90
14723;DHT22;7452;55.594;12.986;2023-05-02T05:39:57;9.40;99.90
14723;DHT22;7452;55.594;12.986;2023-05-02T05:42:24;9.40;99.90
14723;DHT22;7452;55.594;12.986;2023-05-02T05:44:51;9.40;99.90
14723;DHT22;7452;55.594;12.986;2023-05-02T05:47:18;9.40;99.90
14723;DHT22;7452;55.594;12.986;2023-05-02T05:49:46;9.30;99.90
14723;DHT22;7452;55.594;12.986;2023-05-02T05:52:13;9.30;99.90
14723;DHT22;7452;55.594;12.986;2023-05-02T05:54:40;9.30;99.90
14723;DHT22;7452;55.594;12.986;2023-05-02T05:57:08;9.30;99.90
14723;DHT22;7452;55.594;12.986;2023-05-02T05:59:35;9.30;99.90
14723;DHT22;7452;55.594;12.986;2023-05-02T06:02:02;9.20;99.90
14723;DHT22;7452;55.594;12.986;2023-05-02T06:04:29;9.20;99.90
14723;DHT22;7452;55.594;12.986;2023-05-02T06:06:56;9.30;99.90
14723;DHT22;7452;55.594;12.986;2023-05-02T06:09:23;9.30;99.90
14723;DHT22;7452;55.594;12.986;2023-05-02T06:11:50;9.30;99.90
14723;DHT22;7452;55.594;12.986;2023-05-02T06:14:18;9.40;99.90
14723;DHT22;7452;55.594;12.986;2023-05-02T06:16:45;9.40;99.90
14723;DHT22;7452;55.594;12.986;2023-05-02T06:19:12;9.40;99.90
14723;DHT22;7452;55.594;12.986;2023-05-02T06:21:41;9.40;99.90
14723;DHT22;7452;55.594;12.986;2023-05-02T06:24:08;9.50;99.90
14723;DHT22;7452;55.594;12.986;2023-05-02T06:26:35;9.60;99.90
14723;DHT22;7452;55.594;12.986;2023-05-02T06:29:02;9.50;99.90
14723;DHT22;7452;55.594;12.986;2023-05-02T06:31:30;9.60;99.90
14723;DHT22;7452;55.594;12.986;2023-05-02T06:33:57;9.60;99.90
14723;DHT22;7452;55.594;12.986;2023-05-02T06:36:24;9.60;99.90
14723;DHT22;7452;55.594;12.986;2023-05-02T06:38:52;9.60;99.90
14723;DHT22;7452;55.594;12.986;2023-05-02T06:41:19;9.70;99.90
14723;DHT22;7452;55.594;12.986;2023-05-02T06:43:46;9.70;99.90
14723;DHT22;7452;55.594;12.986;2023-05-02T06:46:13;9.70;99.90
14723;DHT22;7452;55.594;12.986;2023-05-02T06:48:41;9.80;99.90
14723;DHT22;7452;55.594;12.986;2023-05-02T06:51:08;9.80;99.90
14723;DHT22;7452;55.594;12.986;2023-05-02T06:53:35;9.90;99.90
14723;DHT22;7452;55.594;12.986;2023-05-02T06:56:02;9.90;99.90
14723;DHT22;7452;55.594;12.986;2023-05-02T06:58:30;10.00;99.90
14723;DHT22;7452;55.594;12.986;2023-05-02T07:00:56;10.10;99.90
14723;DHT22;7452;55.594;12.986;2023-05-02T07:03:23;10.00;99.90
14723;DHT22;7452;55.594;12.986;2023-05-02T07:05:52;10.10;99.90
14723;DHT22;7452;55.594;12.986;2023-05-02T07:08:19;10.10;99.90
14723;DHT22;7452;55.594;12.986;2023-05-02T07:10:47;10.20;99.90
14723;DHT22;7452;55.594;12.986;2023-05-02T07:13:14;10.30;99.90
14723;DHT22;7452;55.594;12.986;2023-05-02T07:15:41;10.30;99.90
14723;DHT22;7452;55.594;12.986;2023-05-02T07:18:08;10.40;99.90
14723;DHT22;7452;55.594;12.986;2023-05-02T07:20:35;10.40;99.90
14723;DHT22;7452;55.594;12.986;2023-05-02T07:23:04;10.50;99.90
14723;DHT22;7452;55.594;12.986;2023-05-02T07:25:31;10.70;99.90
14723;DHT22;7452;55.594;12.986;2023-05-02T07:27:58;10.70;99.90
14723;DHT22;7452;55.594;12.986;2023-05-02T07:30:25;10.70;99.90
14723;DHT22;7452;55.594;12.986;2023-05-02T07:32:52;10.70;99.90
14723;DHT22;7452;55.594;12.986;2023-05-02T07:35:18;10.70;99.90
14723;DHT22;7452;55.594;12.986;2023-05-02T07:37:45;10.80;99.90
14723;DHT22;7452;55.594;12.986;2023-05-02T07:40:14;10.70;99.90
14723;DHT22;7452;55.594;12.986;2023-05-02T07:42:41;10.80;99.90
14723;DHT22;7452;55.594;12.986;2023-05-02T07:45:09;10.80;99.90
14723;DHT22;7452;55.594;12.986;2023-05-02T07:47:36;11.00;99.90
14723;DHT22;7452;55.594;12.986;2023-05-02T07:50:03;11.10;99.90
14723;DHT22;7452;55.594;12.986;2023-05-02T07:52:31;11.00;99.90
14723;DHT22;7452;55.594;12.986;2023-05-02T07:54:57;11.00;99.90
14723;DHT22;7452;55.594;12.986;2023-05-02T07:57:26;11.10;99.90
14723;DHT22;7452;55.594;12.986;2023-05-02T07:59:53;11.20;99.90
14723;DHT22;7452;55.594;12.986;2023-05-02T08:02:21;11.20;99.90
14723;DHT22;7452;55.594;12.986;2023-05-02T08:04:49;11.30;99.90
14723;DHT22;7452;55.594;12.986;2023-05-02T08:07:16;11.40;99.90
14723;DHT22;7452;55.594;12.986;2023-05-02T08:09:43;11.30;99.90
14723;DHT22;7452;55.594;12.986;2023-05-02T08:12:09;11.30;99.90
14723;DHT22;7452;55.594;12.986;2023-05-02T08:14:38;11.30;99.90
14723;DHT22;7452;55.594;12.986;2023-05-02T08:17:04;11.50;99.90
14723;DHT22;7452;55.594;12.986;2023-05-02T08:19:31;11.50;99.90
14723;DHT22;7452;55.594;12.986;2023-05-02T08:21:58;11.60;99.90
14723;DHT22;7452;55.594;12.986;2023-05-02T08:24:25;11.70;99.90
14723;DHT22;7452;55.594;12.986;2023-05-02T08:26:52;11.80;99.90
14723;DHT22;7452;55.594;12.986;2023-05-02T08:29:19;11.90;99.90
14723;DHT22;7452;55.594;12.986;2023-05-02T08:31:47;12.00;99.90
14723;DHT22;7452;55.594;12.986;2023-05-02T08:34:14;12.00;99.90
14723;DHT22;7452;55.594;12.986;2023-05-02T08:36:41;12.10;99.90
14723;DHT22;7452;55.594;12.986;2023-05-02T08:39:08;12.20;99.90
14723;DHT22;7452;55.594;12.986;2023-05-02T08:41:36;12.30;99.90
14723;DHT22;7452;55.594;12.986;2023-05-02T08:44:05;12.30;99.90
14723;DHT22;7452;55.594;12.986;2023-05-02T08:46:35;12.30;99.90
14723;DHT22;7452;55.594;12.986;2023-05-02T08:49:04;12.40;99.90
14723;DHT22;7452;55.594;12.986;2023-05-02T08:51:32;12.40;99.90
14723;DHT22;7452;55.594;12.986;2023-05-02T08:54:01;12.50;99.90
14723;DHT22;7452;55.594;12.986;2023-05-02T08:56:28;12.50;99.90
14723;DHT22;7452;55.594;12.986;2023-05-02T08:58:55;12.60;99.90
14723;DHT22;7452;55.594;12.986;2023-05-02T09:01:23;12.60;99.90
14723;DHT22;7452;55.594;12.986;2023-05-02T09:03:50;12.60;99.90
14723;DHT22;7452;55.594;12.986;2023-05-02T09:06:21;12.70;99.90
14723;DHT22;7452;55.594;12.986;2023-05-02T09:08:49;12.80;99.90
14723;DHT22;7452;55.594;12.986;2023-05-02T09:11:17;12.90;99.90
14723;DHT22;7452;55.594;12.986;2023-05-02T09:13:45;13.00;99.90
14723;DHT22;7452;55.594;12.986;2023-05-02T09:16:13;13.10;99.90
14723;DHT22;7452;55.594;12.986;2023-05-02T09:18:42;13.10;99.90
14723;DHT22;7452;55.594;12.986;2023-05-02T09:21:13;13.20;99.90
14723;DHT22;7452;55.594;12.986;2023-05-02T09:23:42;13.20;99.90
14723;DHT22;7452;55.594;12.986;2023-05-02T09:26:11;13.30;99.90
14723;DHT22;7452;55.594;12.986;2023-05-02T09:28:40;13.30;99.90
14723;DHT22;7452;55.594;12.986;2023-05-02T09:31:08;13.30;99.90
14723;DHT22;7452;55.594;12.986;2023-05-02T09:33:36;13.30;99.90
14723;DHT22;7452;55.594;12.986;2023-05-02T09:36:04;13.50;99.90
14723;DHT22;7452;55.594;12.986;2023-05-02T09:38:31;13.80;99.90
14723;DHT22;7452;55.594;12.986;2023-05-02T09:41:00;13.90;99.90
14723;DHT22;7452;55.594;12.986;2023-05-02T09:43:28;14.10;99.90
14723;DHT22;7452;55.594;12.986;2023-05-02T09:45:56;14.30;99.90
14723;DHT22;7452;55.594;12.986;2023-05-02T09:48:23;14.40;99.90
14723;DHT22;7452;55.594;12.986;2023-05-02T09:50:50;14.60;99.90
14723;DHT22;7452;55.594;12.986;2023-05-02T09:53:17;14.60;99.90
14723;DHT22;7452;55.594;12.986;2023-05-02T09:55:44;14.70;99.90
14723;DHT22;7452;55.594;12.986;2023-05-02T09:58:21;14.80;99.90
14723;DHT22;7452;55.594;12.986;2023-05-02T10:00:49;15.10;99.90
14723;DHT22;7452;55.594;12.986;2023-05-02T10:03:17;15.30;99.90
14723;DHT22;7452;55.594;12.986;2023-05-02T10:05:45;15.40;99.90
14723;DHT22;7452;55.594;12.986;2023-05-02T10:08:12;15.70;99.90
14723;DHT22;7452;55.594;12.986;2023-05-02T10:10:41;16.00;99.90
14723;DHT22;7452;55.594;12.986;2023-05-02T10:13:12;16.40;99.90
14723;DHT22;7452;55.594;12.986;2023-05-02T10:15:43;16.60;99.90
14723;DHT22;7452;55.594;12.986;2023-05-02T10:18:12;17.00;99.90
14723;DHT22;7452;55.594;12.986;2023-05-02T10:20:43;17.40;99.90
14723;DHT22;7452;55.594;12.986;2023-05-02T10:23:15;17.70;99.90
14723;DHT22;7452;55.594;12.986;2023-05-02T10:25:42;18.00;99.90
14723;DHT22;7452;55.594;12.986;2023-05-02T10:28:09;18.60;99.90
14723;DHT22;7452;55.594;12.986;2023-05-02T10:30:38;19.10;99.90
14723;DHT22;7452;55.594;12.986;2023-05-02T10:33:06;19.80;99.90
14723;DHT22;7452;55.594;12.986;2023-05-02T10:35:35;19.90;99.90
14723;DHT22;7452;55.594;12.986;2023-05-02T10:38:03;20.20;99.90
14723;DHT22;7452;55.594;12.986;2023-05-02T10:40:32;20.70;99.90
14723;DHT22;7452;55.594;12.986;2023-05-02T10:42:59;21.00;99.90
14723;DHT22;7452;55.594;12.986;2023-05-02T10:45:30;21.50;99.90
14723;DHT22;7452;55.594;12.986;2023-05-02T10:48:15;22.00;99.90
14723;DHT22;7452;55.594;12.986;2023-05-02T10:50:44;22.50;99.90
14723;DHT22;7452;55.594;12.986;2023-05-02T10:53:22;23.10;99.90
14723;DHT22;7452;55.594;12.986;2023-05-02T10:58:51;23.90;99.90
14723;DHT22;7452;55.594;12.986;2023-05-02T11:01:35;24.50;99.90
14723;DHT22;7452;55.594;12.986;2023-05-02T11:04:07;25.00;99.90
14723;DHT22;7452;55.594;12.986;2023-05-02T11:06:35;25.60;99.90
14723;DHT22;7452;55.594;12.986;2023-05-02T11:09:30;25.20;99.90
14723;DHT22;7452;55.594;12.986;2023-05-02T11:11:58;23.80;99.90
14723;DHT22;7452;55.594;12.986;2023-05-02T11:14:43;22.50;99.90
14723;DHT22;7452;55.594;12.986;2023-05-02T11:17:11;21.00;99.90
14723;DHT22;7452;55.594;12.986;2023-05-02T11:22:49;19.90;99.90
14723;DHT22;7452;55.594;12.986;2023-05-02T11:25:35;20.20;99.90
14723;DHT22;7452;55.594;12.986;2023-05-02T11:28:05;21.30;99.90
14723;DHT22;7452;55.594;12.986;2023-05-02T11:30:40;22.70;99.90
14723;DHT22;7452;55.594;12.986;2023-05-02T11:33:13;23.40;99.90
14723;DHT22;7452;55.594;12.986;2023-05-02T11:35:43;24.10;99.90
14723;DHT22;7452;55.594;12.986;2023-05-02T11:38:14;24.60;99.90
14723;DHT22;7452;55.594;12.986;2023-05-02T11:40:49;25.20;99.90
14723;DHT22;7452;55.594;12.986;2023-05-02T11:43:18;25.60;99.90
14723;DHT22;7452;55.594;12.986;2023-05-02T11:45:46;25.70;99.90
14723;DHT22;7452;55.594;12.986;2023-05-02T11:48:16;25.80;99.90
14723;DHT22;7452;55.594;12.986;2023-05-02T11:50:44;26.00;99.90
14723;DHT22;7452;55.594;12.986;2023-05-02T11:53:13;26.20;99.90
14723;DHT22;7452;55.594;12.986;2023-05-02T11:55:48;26.70;99.90
14723;DHT22;7452;55.594;12.986;2023-05-02T11:58:17;27.00;99.90
14723;DHT22;7452;55.594;12.986;2023-05-02T12:00:45;27.60;99.90
14723;DHT22;7452;55.594;12.986;2023-05-02T12:03:29;27.80;99.90
14723;DHT22;7452;55.594;12.986;2023-05-02T12:05:57;27.60;99.90
14723;DHT22;7452;55.594;12.986;2023-05-02T12:08:26;27.40;99.90
14723;DHT22;7452;55.594;12.986;2023-05-02T12:10:55;27.30;99.90
14723;DHT22;7452;55.594;12.986;2023-05-02T12:13:23;26.90;99.90
14723;DHT22;7452;55.594;12.986;2023-05-02T12:15:52;26.80;99.90
14723;DHT22;7452;55.594;12.986;2023-05-02T12:18:22;27.20;99.90
14723;DHT22;7452;55.594;12.986;2023-05-02T12:20:50;27.40;99.90
14723;DHT22;7452;55.594;12.986;2023-05-02T12:23:18;27.60;99.90
14723;DHT22;7452;55.594;12.986;2023-05-02T12:25:47;27.60;99.90
14723;DHT22;7452;55.594;12.986;2023-05-02T12:28:16;27.00;99.90
14723;DHT22;7452;55.594;12.986;2023-05-02T12:30:45;26.90;99.90
14723;DHT22;7452;55.594;12.986;2023-05-02T12:33:12;27.20;99.90
14723;DHT22;7452;55.594;12.986;2023-05-02T12:35:41;27.50;98.70
14723;DHT22;7452;55.594;12.986;2023-05-02T12:38:10;27.20;99.90
14723;DHT22;7452;55.594;12.986;2023-05-02T12:40:38;27.10;99.40
14723;DHT22;7452;55.594;12.986;2023-05-02T12:43:06;27.30;99.90
14723;DHT22;7452;55.594;12.986;2023-05-02T12:45:35;27.50;97.00
14723;DHT22;7452;55.594;12.986;2023-05-02T12:48:17;27.50;99.10
14723;DHT22;7452;55.594;12.986;2023-05-02T12:50:44;27.40;99.90
14723;DHT22;7452;55.594;12.986;2023-05-02T12:53:11;27.60;96.90
14723;DHT22;7452;55.594;12.986;2023-05-02T12:55:38;27.70;98.10
14723;DHT22;7452;55.594;12.986;2023-05-02T12:58:08;28.30;99.90
14723;DHT22;7452;55.594;12.986;2023-05-02T13:00:38;28.60;99.20
14723;DHT22;7452;55.594;12.986;2023-05-02T13:03:06;29.20;96.60
14723;DHT22;7452;55.594;12.986;2023-05-02T13:05:34;29.20;97.20
14723;DHT22;7452;55.594;12.986;2023-05-02T13:08:01;29.10;95.00
14723;DHT22;7452;55.594;12.986;2023-05-02T13:10:28;29.20;94.30
14723;DHT22;7452;55.594;12.986;2023-05-02T13:12:55;28.70;97.30
14723;DHT22;7452;55.594;12.986;2023-05-02T13:15:23;28.90;95.80
14723;DHT22;7452;55.594;12.986;2023-05-02T13:17:50;28.90;99.60
14723;DHT22;7452;55.594;12.986;2023-05-02T13:20:18;29.40;96.50
14723;DHT22;7452;55.594;12.986;2023-05-02T13:22:45;29.40;97.50
14723;DHT22;7452;55.594;12.986;2023-05-02T13:25:12;29.50;97.60
14723;DHT22;7452;55.594;12.986;2023-05-02T13:27:38;29.60;96.90
14723;DHT22;7452;55.594;12.986;2023-05-02T13:30:07;30.00;96.60
14723;DHT22;7452;55.594;12.986;2023-05-02T13:32:37;30.40;96.10
14723;DHT22;7452;55.594;12.986;2023-05-02T13:35:05;30.60;94.50
14723;DHT22;7452;55.594;12.986;2023-05-02T13:37:32;30.80;92.80
14723;DHT22;7452;55.594;12.986;2023-05-02T13:39:59;31.10;95.30
14723;DHT22;7452;55.594;12.986;2023-05-02T13:42:26;31.10;92.10
14723;DHT22;7452;55.594;12.986;2023-05-02T13:44:53;31.70;93.30
14723;DHT22;7452;55.594;12.986;2023-05-02T13:47:20;31.50;92.80
14723;DHT22;7452;55.594;12.986;2023-05-02T13:49:48;31.20;94.40
14723;DHT22;7452;55.594;12.986;2023-05-02T13:52:15;31.20;93.30
14723;DHT22;7452;55.594;12.986;2023-05-02T13:54:42;31.50;91.70
14723;DHT22;7452;55.594;12.986;2023-05-02T13:57:09;31.50;93.20
14723;DHT22;7452;55.594;12.986;2023-05-02T13:59:36;31.80;93.00
14723;DHT22;7452;55.594;12.986;2023-05-02T14:02:03;31.80;91.50
14723;DHT22;7452;55.594;12.986;2023-05-02T14:04:30;31.90;92.30
14723;DHT22;7452;55.594;12.986;2023-05-02T14:06:58;31.90;94.30
14723;DHT22;7452;55.594;12.986;2023-05-02T14:09:25;31.70;91.30
14723;DHT22;7452;55.594;12.986;2023-05-02T14:11:52;31.60;91.70
14723;DHT22;7452;55.594;12.986;2023-05-02T14:14:20;31.50;91.80
14723;DHT22;7452;55.594;12.986;2023-05-02T14:16:46;31.10;91.40
14723;DHT22;7452;55.594;12.986;2023-05-02T14:19:13;31.20;91.10
14723;DHT22;7452;55.594;12.986;2023-05-02T14:21:40;31.00;92.20
14723;DHT22;7452;55.594;12.986;2023-05-02T14:24:08;30.80;92.10
14723;DHT22;7452;55.594;12.986;2023-05-02T14:26:36;30.80;90.90
14723;DHT22;7452;55.594;12.986;2023-05-02T14:29:03;30.60;90.70
14723;DHT22;7452;55.594;12.986;2023-05-02T14:31:30;30.40;88.80
14723;DHT22;7452;55.594;12.986;2023-05-02T14:33:57;29.90;90.80
14723;DHT22;7452;55.594;12.986;2023-05-02T14:36:24;29.60;92.80
14723;DHT22;7452;55.594;12.986;2023-05-02T14:38:51;29.70;92.20
14723;DHT22;7452;55.594;12.986;2023-05-02T14:41:19;30.20;90.20
14723;DHT22;7452;55.594;12.986;2023-05-02T14:43:47;30.30;90.20
14723;DHT22;7452;55.594;12.986;2023-05-02T14:46:14;29.90;92.10
14723;DHT22;7452;55.594;12.986;2023-05-02T14:48:40;29.80;92.00
14723;DHT22;7452;55.594;12.986;2023-05-02T14:51:07;29.40;92.70
14723;DHT22;7452;55.594;12.986;2023-05-02T14:53:35;29.30;91.40
14723;DHT22;7452;55.594;12.986;2023-05-02T14:56:02;29.80;90.40
14723;DHT22;7452;55.594;12.986;2023-05-02T14:58:30;29.30;90.30
14723;DHT22;7452;55.594;12.986;2023-05-02T15:00:57;29.20;90.60
14723;DHT22;7452;55.594;12.986;2023-05-02T15:03:24;29.10;90.70
14723;DHT22;7452;55.594;12.986;2023-05-02T15:05:51;28.50;90.80
14723;DHT22;7452;55.594;12.986;2023-05-02T15:08:18;28.10;93.20
14723;DHT22;7452;55.594;12.986;2023-05-02T15:10:45;28.10;94.20
14723;DHT22;7452;55.594;12.986;2023-05-02T15:13:12;28.50;93.50
14723;DHT22;7452;55.594;12.986;2023-05-02T15:15:40;28.90;93.10
14723;DHT22;7452;55.594;12.986;2023-05-02T15:18:07;28.90;92.10
14723;DHT22;7452;55.594;12.986;2023-05-02T15:20:34;28.70;91.30
14723;DHT22;7452;55.594;12.986;2023-05-02T15:23:01;28.50;91.60
14723;DHT22;7452;55.594;12.986;2023-05-02T15:25:28;28.40;92.10
14723;DHT22;7452;55.594;12.986;2023-05-02T15:27:56;28.50;92.30
14723;DHT22;7452;55.594;12.986;2023-05-02T15:30:23;28.30;90.40
14723;DHT22;7452;55.594;12.986;2023-05-02T15:32:51;28.10;86.60
14723;DHT22;7452;55.594;12.986;2023-05-02T15:35:18;27.60;90.50
14723;DHT22;7452;55.594;12.986;2023-05-02T15:37:45;27.50;91.20
14723;DHT22;7452;55.594;12.986;2023-05-02T15:40:12;27.60;91.20
14723;DHT22;7452;55.594;12.986;2023-05-02T15:42:40;27.90;91.00
14723;DHT22;7452;55.594;12.986;2023-05-02T15:45:07;27.90;90.10
14723;DHT22;7452;55.594;12.986;2023-05-02T15:47:36;27.90;89.60
14723;DHT22;7452;55.594;12.986;2023-05-02T15:50:05;27.90;90.10